Time;durP1;ratioP1;P1;durP2;ratioP2;P2;SDS_P1;SDS_P2;PMS_P1;PMS_P2;Temp;Humidity;BMP_temperature;BMP_pressure;BME280_temperature;BME280_humidity;BME280_pressure;Samples;Min_cycle;Max_cycle;Signal;HPM_P1;HPM_P2
2021/11/28 00:01:28;;;;;;;2.38;1.10;;;13.20;67.60;;;;;;4190969;28;20099;-72
2021/11/28 00:03:33;;;;;;;2.67;1.20;;;13.20;67.80;;;;;;4186755;28;20116;-72
2021/11/28 00:05:36;;;;;;;2.75;1.20;;;13.20;67.70;;;;;;4176645;28;20080;-75
2021/11/28 00:12:13;;;;;;;3.90;1.02;;;13.20;67.80;;;;;;4190786;28;20053;-71
2021/11/28 00:14:16;;;;;;;5.68;1.80;;;13.20;67.80;;;;;;4185382;28;20089;-73
2021/11/28 00:16:20;;;;;;;2.60;1.20;;;13.20;67.80;;;;;;4190518;28;20112;-74
2021/11/28 00:18:26;;;;;;;2.92;1.40;;;13.10;67.70;;;;;;4186126;28;20085;-73
2021/11/28 00:20:29;;;;;;;2.58;1.20;;;13.20;67.70;;;;;;4182879;28;20075;-74
2021/11/28 00:22:32;;;;;;;2.08;1.17;;;13.20;67.80;;;;;;4190403;28;20111;-72
2021/11/28 00:24:36;;;;;;;1.98;1.33;;;13.10;67.70;;;;;;4177700;28;20116;-69
2021/11/28 00:26:39;;;;;;;2.67;1.20;;;13.10;67.70;;;;;;4190412;28;20079;-73
2021/11/28 00:28:42;;;;;;;2.70;1.10;;;13.10;67.80;;;;;;4185995;28;20116;-71
2021/11/28 00:30:45;;;;;;;2.80;1.23;;;13.10;67.70;;;;;;4181974;28;20080;-71
2021/11/28 00:32:49;;;;;;;2.60;1.00;;;13.10;67.70;;;;;;4172502;28;20056;-75
2021/11/28 00:34:54;;;;;;;3.28;1.20;;;13.10;67.80;;;;;;4185914;28;20129;-76
2021/11/28 00:36:57;;;;;;;4.13;1.58;;;13.10;67.80;;;;;;4173942;28;20150;-72
2021/11/28 00:39:01;;;;;;;4.35;1.08;;;13.10;67.80;;;;;;4176958;28;20057;-72
2021/11/28 00:41:04;;;;;;;2.70;1.08;;;13.10;67.80;;;;;;4182274;28;20065;-70
2021/11/28 00:43:07;;;;;;;4.50;1.40;;;13.10;67.80;;;;;;4173855;28;20073;-71
2021/11/28 00:45:11;;;;;;;6.60;1.50;;;13.10;67.80;;;;;;4185162;28;20069;-72
2021/11/28 00:47:15;;;;;;;4.07;1.42;;;13.10;67.80;;;;;;4174041;28;20112;-74
2021/11/28 00:49:22;;;;;;;3.83;1.37;;;13.10;67.90;;;;;;4176687;28;20053;-70
2021/11/28 00:53:50;;;;;;;5.07;1.55;;;13.10;67.90;;;;;;4189079;28;20108;-72
2021/11/28 00:55:53;;;;;;;3.78;1.25;;;13.00;67.90;;;;;;4179111;28;20116;-72
2021/11/28 00:57:56;;;;;;;4.32;1.13;;;13.00;67.80;;;;;;4190096;28;20079;-72
2021/11/28 01:00:04;;;;;;;2.10;1.00;;;13.00;67.90;;;;;;4183844;28;20128;-71
2021/11/28 01:02:07;;;;;;;3.40;1.20;;;13.10;68.00;;;;;;4184342;28;20111;-70
2021/11/28 01:04:11;;;;;;;2.90;1.10;;;13.10;67.90;;;;;;4187983;28;20072;-71
2021/11/28 01:06:14;;;;;;;3.35;1.08;;;13.00;67.90;;;;;;4178394;28;20072;-70
2021/11/28 01:08:18;;;;;;;2.97;1.13;;;13.00;68.00;;;;;;4188705;28;20092;-71
2021/11/28 01:10:21;;;;;;;2.72;1.10;;;13.00;68.00;;;;;;4183435;28;20076;-71
2021/11/28 01:12:25;;;;;;;3.28;1.20;;;13.00;67.90;;;;;;4183750;28;20441;-71
2021/11/28 01:14:28;;;;;;;2.05;0.85;;;13.10;68.00;;;;;;4188015;28;20068;-71
2021/11/28 01:16:33;;;;;;;3.25;1.13;;;13.00;68.00;;;;;;4186106;28;20112;-72
2021/11/28 01:18:36;;;;;;;3.30;1.00;;;13.00;68.00;;;;;;4189611;28;20080;-73
2021/11/28 01:20:39;;;;;;;3.00;1.20;;;13.10;68.00;;;;;;4183647;28;20069;-76
2021/11/28 01:22:42;;;;;;;4.22;1.40;;;13.00;68.00;;;;;;4183108;28;20116;-71
2021/11/28 01:24:46;;;;;;;2.67;0.88;;;13.00;68.00;;;;;;4188804;28;20068;-75
2021/11/28 01:26:51;;;;;;;2.50;1.17;;;13.00;68.00;;;;;;4176547;28;20080;-71
2021/11/28 01:28:55;;;;;;;3.92;1.02;;;13.00;68.10;;;;;;4173033;28;20069;-73
2021/11/28 01:30:58;;;;;;;2.35;1.00;;;13.00;67.90;;;;;;4179069;28;20113;-71
2021/11/28 01:33:02;;;;;;;5.28;1.48;;;13.00;68.00;;;;;;4179185;28;20108;-72
2021/11/28 01:35:07;;;;;;;2.40;0.90;;;13.00;68.00;;;;;;4173012;28;20321;-71
2021/11/28 01:37:10;;;;;;;3.88;1.25;;;13.00;68.00;;;;;;4185158;28;20084;-72
2021/11/28 01:39:13;;;;;;;3.70;1.20;;;13.00;68.00;;;;;;4189299;28;20052;-71
2021/11/28 01:41:21;;;;;;;3.20;0.93;;;13.00;68.00;;;;;;4183336;28;20065;-71
2021/11/28 01:43:25;;;;;;;4.97;1.30;;;13.00;68.00;;;;;;4182772;28;20116;-72
2021/11/28 01:45:30;;;;;;;2.95;1.00;;;13.00;68.00;;;;;;4187973;28;20116;-72
2021/11/28 01:47:33;;;;;;;3.22;1.20;;;13.00;68.00;;;;;;4177991;28;20342;-71
2021/11/28 01:49:36;;;;;;;4.00;1.30;;;13.00;68.00;;;;;;4189012;28;20076;-74
2021/11/28 01:51:39;;;;;;;2.00;0.95;;;13.00;68.00;;;;;;4183293;28;20049;-72
2021/11/28 01:53:44;;;;;;;2.92;1.08;;;13.00;68.00;;;;;;4182802;28;20112;-71
2021/11/28 01:55:48;;;;;;;3.10;1.02;;;13.00;68.00;;;;;;4188548;28;20377;-73
2021/11/28 01:57:53;;;;;;;2.53;1.15;;;13.00;68.10;;;;;;4177765;28;20073;-71
2021/11/28 01:59:57;;;;;;;3.67;1.02;;;13.00;68.10;;;;;;4188717;28;20123;-76
2021/11/28 02:02:00;;;;;;;3.10;1.10;;;12.90;68.00;;;;;;4183222;28;20126;-71
2021/11/28 02:04:04;;;;;;;3.00;1.25;;;12.90;68.00;;;;;;4182391;28;20052;-70
2021/11/28 02:06:09;;;;;;;3.20;1.45;;;12.90;68.00;;;;;;4188219;28;20084;-76
2021/11/28 02:08:12;;;;;;;4.00;0.98;;;13.00;68.00;;;;;;4177413;28;20116;-71
2021/11/28 02:10:16;;;;;;;3.00;0.85;;;12.90;68.00;;;;;;4188668;28;20081;-71
2021/11/28 02:12:22;;;;;;;2.58;1.10;;;12.90;68.00;;;;;;4183442;28;20108;-72
2021/11/28 02:14:26;;;;;;;4.95;1.23;;;12.90;68.00;;;;;;4182100;28;20045;-70
2021/11/28 02:16:29;;;;;;;5.20;1.25;;;13.00;68.00;;;;;;4187850;28;20274;-71
2021/11/28 02:18:32;;;;;;;3.08;1.25;;;12.90;67.90;;;;;;4177077;28;20298;-70
2021/11/28 02:20:42;;;;;;;1.75;0.80;;;12.90;68.60;;;;;;4188929;28;20387;-74
2021/11/28 02:22:45;;;;;;;2.92;1.05;;;12.90;68.00;;;;;;4182179;28;20101;-71
2021/11/28 02:24:49;;;;;;;3.38;1.00;;;12.90;68.00;;;;;;4182464;28;20112;-71
2021/11/28 02:26:52;;;;;;;1.90;0.95;;;12.90;68.10;;;;;;4187213;28;20120;-71
2021/11/28 02:28:55;;;;;;;3.05;0.90;;;12.90;67.90;;;;;;4184963;28;20112;-73
2021/11/28 02:30:59;;;;;;;2.13;1.00;;;12.90;68.00;;;;;;4188459;28;20120;-70
2021/11/28 02:33:02;;;;;;;3.38;1.05;;;12.90;68.00;;;;;;4182513;28;20270;-71
2021/11/28 02:35:06;;;;;;;3.80;1.05;;;12.90;68.00;;;;;;4180616;28;20079;-71
2021/11/28 02:37:11;;;;;;;1.90;0.85;;;12.90;68.00;;;;;;4187619;28;20095;-73
2021/11/28 02:39:14;;;;;;;2.70;1.23;;;12.90;68.00;;;;;;4176672;28;20421;-73
2021/11/28 02:41:17;;;;;;;4.35;1.20;;;12.90;68.00;;;;;;4187097;28;20127;-72
2021/11/28 02:43:27;;;;;;;3.08;1.33;;;12.90;68.00;;;;;;4182266;28;20337;-70
2021/11/28 02:45:31;;;;;;;3.80;1.33;;;12.90;68.10;;;;;;4182262;28;20112;-70
2021/11/28 02:47:35;;;;;;;3.17;0.90;;;12.90;68.10;;;;;;4186837;28;20351;-71
2021/11/28 02:49:38;;;;;;;3.17;1.10;;;12.90;68.00;;;;;;4184985;28;20129;-71
2021/11/28 02:51:41;;;;;;;4.40;0.93;;;12.90;68.10;;;;;;4187363;28;20112;-72
2021/11/28 02:53:46;;;;;;;3.13;1.13;;;12.90;68.10;;;;;;4184726;28;20136;-71
2021/11/28 02:55:51;;;;;;;2.08;0.88;;;12.90;68.10;;;;;;4178376;28;20108;-75
2021/11/28 02:57:56;;;;;;;2.75;1.25;;;12.90;68.10;;;;;;4176536;28;20108;-74
2021/11/28 02:59:59;;;;;;;4.70;1.40;;;12.90;68.20;;;;;;4188684;28;20069;-70
2021/11/28 03:02:03;;;;;;;3.28;1.45;;;12.90;68.10;;;;;;4191519;28;20244;-70
2021/11/28 03:04:07;;;;;;;3.63;0.88;;;12.90;68.10;;;;;;4185451;28;20116;-73
2021/11/28 03:06:10;;;;;;;3.10;0.90;;;12.90;68.10;;;;;;4185383;28;20069;-73
2021/11/28 03:08:15;;;;;;;3.60;1.23;;;12.80;68.10;;;;;;4190282;28;20116;-75
2021/11/28 03:10:35;;;;;;;3.22;1.13;;;12.90;68.20;;;;;;4187833;28;20282;-71
2021/11/28 03:12:38;;;;;;;3.75;1.23;;;12.90;68.20;;;;;;4191511;28;20273;-74
2021/11/28 03:14:41;;;;;;;2.25;0.88;;;12.80;68.00;;;;;;4183072;28;20105;-73
2021/11/28 03:16:44;;;;;;;3.80;1.10;;;12.90;68.10;;;;;;4186987;28;20129;-72
2021/11/28 03:18:49;;;;;;;3.13;1.05;;;12.80;68.10;;;;;;4189839;28;20107;-70
2021/11/28 03:20:54;;;;;;;2.45;0.93;;;12.80;68.20;;;;;;4180024;28;20052;-73
2021/11/28 03:22:57;;;;;;;;;;;12.80;68.10;;;;;;4191824;28;20112;-70
2021/11/28 03:25:08;;;;;;;2.83;0.80;;;12.80;68.10;;;;;;4182110;28;19984;-70
2021/11/28 03:27:12;;;;;;;3.20;0.95;;;12.80;68.20;;;;;;4187784;28;20076;-72
2021/11/28 03:29:17;;;;;;;3.20;0.77;;;12.80;68.10;;;;;;4188361;28;20169;-70
2021/11/28 03:31:22;;;;;;;1.90;1.00;;;12.80;68.20;;;;;;4185532;28;20109;-69
2021/11/28 03:33:25;;;;;;;1.75;1.05;;;12.80;68.20;;;;;;4174464;28;20053;-73
2021/11/28 03:35:28;;;;;;;2.13;1.02;;;12.80;68.10;;;;;;4183031;28;20308;-72
2021/11/28 03:37:32;;;;;;;3.90;1.10;;;12.80;68.10;;;;;;4178125;28;20069;-74
2021/11/28 03:39:35;;;;;;;4.75;0.80;;;12.80;68.20;;;;;;4176176;28;20104;-71
2021/11/28 03:41:39;;;;;;;4.13;0.98;;;12.80;68.10;;;;;;4185975;28;20076;-72
2021/11/28 03:43:44;;;;;;;4.50;1.15;;;12.80;68.20;;;;;;4174943;28;20069;-71
2021/11/28 03:45:47;;;;;;;;;;;12.80;68.10;;;;;;4183218;28;20132;-75
2021/11/28 03:47:50;;;;;;;2.40;0.90;;;12.80;68.10;;;;;;4178097;28;19943;-71
2021/11/28 03:49:53;;;;;;;3.05;0.93;;;12.80;68.20;;;;;;4175501;28;20069;-75
2021/11/28 03:51:57;;;;;;;3.88;1.20;;;12.80;68.10;;;;;;4185567;28;20116;-76
2021/11/28 03:54:00;;;;;;;3.50;1.33;;;12.80;68.20;;;;;;4174723;28;20073;-73
2021/11/28 03:56:07;;;;;;;1.73;0.70;;;12.80;68.10;;;;;;4178600;28;20065;-72
2021/11/28 03:58:11;;;;;;;2.50;0.93;;;12.80;68.20;;;;;;4187408;28;20116;-73
2021/11/28 04:00:16;;;;;;;2.70;0.85;;;12.80;68.20;;;;;;4189520;28;20065;-71
2021/11/28 04:02:19;;;;;;;2.92;1.00;;;12.80;68.20;;;;;;4179592;28;20111;-72
2021/11/28 04:04:23;;;;;;;3.03;0.82;;;12.80;68.20;;;;;;4190829;28;20073;-72
2021/11/28 04:06:26;;;;;;;3.78;1.10;;;12.80;68.20;;;;;;4182313;28;20050;-72
2021/11/28 04:08:29;;;;;;;1.75;0.80;;;12.80;68.10;;;;;;4186275;28;20116;-71
2021/11/28 04:10:33;;;;;;;3.47;1.25;;;12.80;68.20;;;;;;4189014;28;20286;-71
2021/11/28 04:12:36;;;;;;;2.45;1.02;;;12.80;68.20;;;;;;4179167;28;20075;-72
2021/11/28 04:14:39;;;;;;;1.70;0.77;;;12.70;68.10;;;;;;4190536;28;20480;-71
2021/11/28 04:16:44;;;;;;;1.70;0.80;;;12.80;68.20;;;;;;4182828;28;20053;-72
2021/11/28 04:18:47;;;;;;;2.42;0.93;;;12.70;68.10;;;;;;4186135;28;20074;-72
2021/11/28 04:20:50;;;;;;;3.60;1.13;;;12.70;68.20;;;;;;4188998;28;20113;-70
2021/11/28 04:22:53;;;;;;;2.75;0.93;;;12.70;68.10;;;;;;4179528;28;20075;-70
2021/11/28 04:24:57;;;;;;;1.45;0.80;;;12.70;68.10;;;;;;4190986;28;20075;-75
2021/11/28 04:27:00;;;;;;;1.38;0.75;;;12.80;68.20;;;;;;4183254;28;20049;-71
2021/11/28 04:29:03;;;;;;;1.55;0.80;;;12.70;68.10;;;;;;4185338;28;20073;-70
2021/11/28 04:31:06;;;;;;;1.52;0.68;;;12.70;68.10;;;;;;4188842;28;20121;-75
2021/11/28 04:33:11;;;;;;;2.72;0.90;;;12.70;68.10;;;;;;4177806;28;20116;-71
2021/11/28 04:35:14;;;;;;;2.60;1.10;;;12.80;68.10;;;;;;4189192;28;20105;-73
2021/11/28 04:37:17;;;;;;;1.35;0.75;;;12.70;68.40;;;;;;4183406;28;20352;-71
2021/11/28 04:39:20;;;;;;;2.60;0.70;;;12.80;68.20;;;;;;4184523;28;20049;-72
2021/11/28 04:41:23;;;;;;;1.98;0.73;;;12.70;68.20;;;;;;4189284;28;20128;-72
2021/11/28 04:43:26;;;;;;;1.05;0.63;;;12.70;68.20;;;;;;4184741;28;20061;-71
2021/11/28 04:45:29;;;;;;;3.75;0.90;;;12.70;68.10;;;;;;4173377;28;20057;-71
2021/11/28 04:47:32;;;;;;;2.25;0.88;;;12.70;68.20;;;;;;4179123;28;20431;-72
2021/11/28 04:49:37;;;;;;;2.72;1.00;;;12.70;68.10;;;;;;4179882;28;20112;-70
2021/11/28 04:51:40;;;;;;;1.67;0.85;;;12.70;68.20;;;;;;4174309;28;20121;-72
2021/11/28 04:53:43;;;;;;;2.47;0.80;;;12.70;68.10;;;;;;4186178;28;20282;-69
2021/11/28 04:55:46;;;;;;;1.35;0.63;;;12.70;68.10;;;;;;4189425;28;20116;-75
2021/11/28 04:57:49;;;;;;;1.77;0.70;;;12.70;68.10;;;;;;4184540;28;20069;-75
2021/11/28 04:59:52;;;;;;;1.58;0.85;;;12.70;68.10;;;;;;4183624;28;20114;-73
2021/11/28 05:01:55;;;;;;;3.58;0.90;;;12.70;68.20;;;;;;4189398;28;20137;-70
2021/11/28 05:03:59;;;;;;;3.13;0.98;;;12.70;68.20;;;;;;4178060;28;20065;-70
2021/11/28 05:06:03;;;;;;;2.90;0.98;;;12.70;68.20;;;;;;4189969;28;20105;-71
2021/11/28 05:08:06;;;;;;;1.65;0.60;;;12.70;68.20;;;;;;4184934;28;20113;-72
2021/11/28 05:10:10;;;;;;;2.40;1.00;;;12.70;68.20;;;;;;4182625;28;20069;-74
2021/11/28 05:12:13;;;;;;;3.10;0.90;;;12.70;68.20;;;;;;4189532;28;20375;-70
2021/11/28 05:14:16;;;;;;;2.95;0.88;;;12.70;68.80;;;;;;4187763;28;20401;-73
2021/11/28 05:16:19;;;;;;;2.70;0.73;;;12.70;68.20;;;;;;4173048;28;20310;-71
2021/11/28 05:18:22;;;;;;;1.60;0.60;;;12.70;68.20;;;;;;4177057;28;20068;-71
2021/11/28 05:20:25;;;;;;;2.13;0.80;;;12.70;68.20;;;;;;4180506;28;20483;-71
2021/11/28 05:22:30;;;;;;;1.48;0.80;;;12.70;68.20;;;;;;4172929;28;20077;-75
2021/11/28 05:24:33;;;;;;;1.38;0.50;;;12.70;68.20;;;;;;4177830;28;20291;-71
2021/11/28 05:26:36;;;;;;;2.70;0.90;;;12.70;68.20;;;;;;4189599;28;20115;-74
2021/11/28 05:28:39;;;;;;;2.13;0.80;;;12.70;68.20;;;;;;4184138;28;20124;-71
2021/11/28 05:30:42;;;;;;;2.85;0.90;;;12.70;68.30;;;;;;4181423;28;20274;-70
2021/11/28 05:32:46;;;;;;;1.70;0.80;;;12.70;68.20;;;;;;4172815;28;20124;-73
2021/11/28 05:34:49;;;;;;;1.27;0.82;;;12.70;68.20;;;;;;4184231;28;20116;-71
2021/11/28 05:36:52;;;;;;;4.20;1.00;;;12.60;68.20;;;;;;4172797;28;20113;-70
2021/11/28 05:38:57;;;;;;;2.80;0.65;;;12.60;68.20;;;;;;4175750;28;20117;-75
2021/11/28 05:41:00;;;;;;;3.03;1.08;;;12.70;68.30;;;;;;4181517;28;20114;-73
2021/11/28 05:43:04;;;;;;;2.95;1.05;;;12.60;68.30;;;;;;4173533;28;20120;-74
2021/11/28 05:45:07;;;;;;;2.35;1.08;;;12.60;68.30;;;;;;4185332;28;20069;-71
2021/11/28 05:47:11;;;;;;;2.33;0.98;;;12.70;68.30;;;;;;4173655;28;20417;-70
2021/11/28 05:49:14;;;;;;;2.63;0.98;;;12.60;68.30;;;;;;4175852;28;20398;-72
2021/11/28 05:51:17;;;;;;;3.15;0.90;;;12.60;68.20;;;;;;4182708;28;20476;-71
2021/11/28 05:53:21;;;;;;;2.05;0.65;;;12.60;68.20;;;;;;4172718;28;20390;-71
2021/11/28 05:55:26;;;;;;;2.65;0.90;;;12.60;68.30;;;;;;4182497;28;20116;-73
2021/11/28 05:57:28;;;;;;;;;;;12.60;68.30;;;;;;4174604;28;20377;-71
2021/11/28 05:59:31;;;;;;;2.88;0.93;;;12.60;68.30;;;;;;4175102;28;19988;-75
2021/11/28 06:01:34;;;;;;;2.05;1.05;;;12.60;68.30;;;;;;4188990;28;20111;-77
2021/11/28 06:03:38;;;;;;;1.92;0.77;;;12.60;68.30;;;;;;4188819;28;20111;-75
2021/11/28 06:05:43;;;;;;;2.08;0.85;;;12.60;68.30;;;;;;4178239;28;20072;-74
2021/11/28 06:07:46;;;;;;;2.08;0.60;;;12.60;68.40;;;;;;4187403;28;20108;-71
2021/11/28 06:09:49;;;;;;;2.33;0.90;;;12.60;68.30;;;;;;4186496;28;20108;-75
2021/11/28 06:11:53;;;;;;;3.17;0.77;;;12.60;68.40;;;;;;4172139;28;20053;-72
2021/11/28 06:13:56;;;;;;;1.85;0.95;;;12.60;68.40;;;;;;4172088;28;20129;-72
2021/11/28 06:15:59;;;;;;;1.88;0.68;;;12.60;68.40;;;;;;4181797;28;20337;-73
2021/11/28 06:18:03;;;;;;;1.60;0.80;;;12.60;68.40;;;;;;4173885;28;20113;-71
2021/11/28 06:20:08;;;;;;;2.97;0.90;;;12.60;68.50;;;;;;4173335;28;20132;-71
2021/11/28 06:22:11;;;;;;;2.55;0.95;;;12.60;68.50;;;;;;4182393;28;20064;-74
2021/11/28 06:24:18;;;;;;;2.03;0.90;;;12.60;68.50;;;;;;4171939;28;20191;-74
2021/11/28 06:26:21;;;;;;;2.45;0.80;;;12.60;68.50;;;;;;4182304;28;20120;-71
2021/11/28 06:28:27;;;;;;;2.70;0.85;;;12.60;68.50;;;;;;4173737;28;20069;-71
2021/11/28 06:30:30;;;;;;;2.58;0.90;;;12.60;68.50;;;;;;4173318;28;20065;-74
2021/11/28 06:32:34;;;;;;;1.70;0.70;;;12.50;68.40;;;;;;4181835;28;20152;-71
2021/11/28 06:34:37;;;;;;;1.90;0.90;;;12.50;68.50;;;;;;4172311;28;20073;-71
2021/11/28 06:36:40;;;;;;;1.60;0.60;;;12.60;68.50;;;;;;4175537;28;20069;-74
2021/11/28 06:38:43;;;;;;;2.50;0.90;;;12.60;68.50;;;;;;4186393;28;20409;-76
2021/11/28 06:40:46;;;;;;;2.65;0.90;;;12.60;68.60;;;;;;4186585;28;20075;-74
2021/11/28 06:42:49;;;;;;;2.85;0.75;;;12.60;68.50;;;;;;4177269;28;20068;-73
2021/11/28 06:44:53;;;;;;;3.45;1.08;;;12.60;68.50;;;;;;4188795;28;20129;-71
2021/11/28 06:47:16;;;;;;;2.85;0.95;;;12.50;68.50;;;;;;4184385;28;20121;-70
2021/11/28 06:49:20;;;;;;;1.52;0.70;;;12.50;68.50;;;;;;4172140;28;20120;-72
2021/11/28 06:51:23;;;;;;;3.35;1.42;;;12.60;68.60;;;;;;4178010;28;20320;-71
2021/11/28 06:53:26;;;;;;;2.28;0.82;;;12.60;68.50;;;;;;4180486;28;20084;-73
2021/11/28 06:55:29;;;;;;;1.88;0.90;;;12.50;68.50;;;;;;4188695;28;20108;-71
2021/11/28 06:57:32;;;;;;;2.58;0.73;;;12.50;68.50;;;;;;4176869;28;20080;-71
2021/11/28 06:59:36;;;;;;;2.55;0.93;;;12.60;68.60;;;;;;4188287;28;20076;-73
2021/11/28 07:01:40;;;;;;;2.30;1.33;;;12.50;68.50;;;;;;4185421;28;20083;-72
2021/11/28 07:03:44;;;;;;;3.50;0.93;;;12.50;68.50;;;;;;4179123;28;20113;-70
2021/11/28 07:05:47;;;;;;;1.83;0.88;;;12.50;68.50;;;;;;4188421;28;20059;-70
2021/11/28 07:07:50;;;;;;;2.10;0.80;;;12.50;68.50;;;;;;4182922;28;20112;-70
2021/11/28 07:09:53;;;;;;;3.13;0.90;;;12.50;68.50;;;;;;4172928;28;20077;-73
2021/11/28 07:11:56;;;;;;;2.85;0.90;;;12.50;68.60;;;;;;4172943;28;20116;-71
2021/11/28 07:13:59;;;;;;;3.70;0.90;;;12.50;68.50;;;;;;4181536;28;20349;-73
2021/11/28 07:16:03;;;;;;;2.60;0.52;;;12.50;68.60;;;;;;4172174;28;20045;-71
2021/11/28 07:18:08;;;;;;;3.58;0.80;;;12.50;68.60;;;;;;4182453;28;20424;-72
2021/11/28 07:20:11;;;;;;;2.30;1.13;;;12.50;68.60;;;;;;4172745;28;20342;-71
2021/11/28 07:22:14;;;;;;;2.30;1.00;;;12.50;68.50;;;;;;4175450;28;20127;-71
2021/11/28 07:24:17;;;;;;;2.15;0.90;;;12.60;68.60;;;;;;4178200;28;20392;-74
2021/11/28 07:26:20;;;;;;;1.75;0.80;;;12.50;68.50;;;;;;4188123;28;20111;-71
2021/11/28 07:28:23;;;;;;;2.38;0.90;;;12.50;68.60;;;;;;4177674;28;20400;-73
2021/11/28 07:30:27;;;;;;;3.50;0.98;;;12.50;68.50;;;;;;4186043;28;20489;-71
2021/11/28 07:32:30;;;;;;;2.67;0.90;;;12.50;68.50;;;;;;4183431;28;20064;-72
2021/11/28 07:34:35;;;;;;;2.20;0.77;;;12.50;68.60;;;;;;4182067;28;20117;-70
2021/11/28 07:36:38;;;;;;;;;;;12.50;68.50;;;;;;4171974;28;20076;-72
2021/11/28 07:38:44;;;;;;;2.17;0.85;;;12.50;68.50;;;;;;4180896;28;20285;-71
2021/11/28 07:40:47;;;;;;;6.05;1.17;;;12.50;68.60;;;;;;4171952;28;20063;-72
2021/11/28 07:42:51;;;;;;;2.13;0.80;;;12.50;68.50;;;;;;4174470;28;20283;-71
2021/11/28 07:44:54;;;;;;;2.08;0.73;;;12.50;68.60;;;;;;4180235;28;20143;-71
2021/11/28 07:46:57;;;;;;;1.95;0.60;;;12.50;68.50;;;;;;4191392;28;20112;-71
2021/11/28 07:49:01;;;;;;;3.13;0.95;;;12.50;68.50;;;;;;4186911;28;20064;-70
2021/11/28 07:51:05;;;;;;;2.13;0.80;;;12.50;68.50;;;;;;4175880;28;20117;-72
2021/11/28 07:53:08;;;;;;;2.92;1.00;;;12.50;68.50;;;;;;4174576;28;20116;-73
2021/11/28 07:55:12;;;;;;;2.15;0.82;;;12.50;68.50;;;;;;4179802;28;20333;-71
2021/11/28 07:57:15;;;;;;;2.42;0.82;;;12.50;68.60;;;;;;4191592;28;20068;-71
2021/11/28 07:59:18;;;;;;;2.97;0.90;;;12.50;68.60;;;;;;4187932;28;20049;-74
2021/11/28 08:01:21;;;;;;;2.22;0.90;;;12.40;68.40;;;;;;4178731;28;20068;-72
2021/11/28 08:03:24;;;;;;;3.97;1.05;;;12.40;68.50;;;;;;4175402;28;20341;-73
2021/11/28 08:05:28;;;;;;;1.85;0.80;;;12.50;68.50;;;;;;4185395;28;20118;-73
2021/11/28 08:07:32;;;;;;;2.72;0.70;;;12.50;68.50;;;;;;4174616;28;20117;-75
2021/11/28 08:09:36;;;;;;;1.65;0.70;;;12.50;68.50;;;;;;4183039;28;20068;-74
2021/11/28 08:11:39;;;;;;;1.73;0.73;;;12.50;68.50;;;;;;4177994;28;20290;-72
2021/11/28 08:13:42;;;;;;;2.47;0.90;;;12.50;68.50;;;;;;4175838;28;20072;-71
2021/11/28 08:15:45;;;;;;;1.63;0.70;;;12.50;68.50;;;;;;4185394;28;20113;-71
2021/11/28 08:17:49;;;;;;;2.55;0.90;;;12.50;68.50;;;;;;4174667;28;20116;-76
2021/11/28 08:19:52;;;;;;;2.00;0.80;;;12.50;68.50;;;;;;4182377;28;20112;-72
2021/11/28 08:21:55;;;;;;;2.25;0.85;;;12.40;68.40;;;;;;4178810;28;20121;-73
2021/11/28 08:24:04;;;;;;;2.45;1.00;;;12.40;68.40;;;;;;4175250;28;20072;-71
2021/11/28 08:26:07;;;;;;;2.85;0.93;;;12.40;68.40;;;;;;4184777;28;20109;-73
2021/11/28 08:28:11;;;;;;;2.50;0.93;;;12.40;68.40;;;;;;4173874;28;20069;-71
2021/11/28 08:30:16;;;;;;;1.63;0.70;;;12.40;68.50;;;;;;4182592;28;20116;-72
2021/11/28 08:32:19;;;;;;;2.35;0.85;;;12.40;68.40;;;;;;4177514;28;20397;-71
2021/11/28 08:34:22;;;;;;;3.05;1.05;;;12.40;68.40;;;;;;4174775;28;20551;-71
2021/11/28 08:36:26;;;;;;;2.63;1.05;;;12.50;68.50;;;;;;4184755;28;20118;-72
2021/11/28 08:38:29;;;;;;;2.17;1.00;;;12.40;68.40;;;;;;4173702;28;20068;-72
2021/11/28 08:40:36;;;;;;;1.95;0.85;;;12.40;68.50;;;;;;4181606;28;20120;-70
2021/11/28 08:42:40;;;;;;;1.92;0.95;;;12.40;68.50;;;;;;4177954;28;20073;-71
2021/11/28 08:44:43;;;;;;;1.95;0.90;;;12.40;68.40;;;;;;4176652;28;20108;-71
2021/11/28 08:46:46;;;;;;;1.25;0.77;;;12.40;68.30;;;;;;4178965;28;20112;-71
2021/11/28 08:48:50;;;;;;;2.10;0.77;;;12.40;68.60;;;;;;4189974;28;20073;-72
2021/11/28 08:50:53;;;;;;;2.03;0.80;;;12.40;68.40;;;;;;4181719;28;20105;-71
2021/11/28 08:52:56;;;;;;;1.63;0.80;;;12.40;68.30;;;;;;4185820;28;20068;-71
2021/11/28 08:54:59;;;;;;;2.05;1.00;;;12.40;68.40;;;;;;4187027;28;20163;-71
2021/11/28 08:57:04;;;;;;;2.58;0.90;;;12.50;69.00;;;;;;4184322;28;20049;-72
2021/11/28 08:59:07;;;;;;;1.42;0.60;;;12.50;68.40;;;;;;4173184;28;20112;-73
2021/11/28 09:01:10;;;;;;;1.88;0.75;;;12.40;68.30;;;;;;4180425;28;20112;-72
2021/11/28 09:03:14;;;;;;;2.38;1.10;;;12.40;68.40;;;;;;4177802;28;20112;-70
2021/11/28 09:05:19;;;;;;;2.88;1.08;;;12.40;68.30;;;;;;4174502;28;20112;-78
2021/11/28 09:07:22;;;;;;;3.80;0.93;;;12.50;68.50;;;;;;4184284;28;20121;-71
2021/11/28 09:09:25;;;;;;;2.50;1.00;;;12.40;68.40;;;;;;4173263;28;20285;-74
2021/11/28 09:11:28;;;;;;;1.73;0.82;;;12.40;68.40;;;;;;4180116;28;20069;-71
2021/11/28 09:13:33;;;;;;;3.35;0.90;;;12.40;68.40;;;;;;4178052;28;20116;-74
2021/11/28 09:15:37;;;;;;;3.35;1.23;;;12.50;68.40;;;;;;4173288;28;20113;-73
2021/11/28 09:18:05;;;;;;;2.83;1.10;;;12.40;68.40;;;;;;4178617;28;20049;-71
2021/11/28 09:20:10;;;;;;;5.28;1.20;;;12.40;68.40;;;;;;4189680;28;20076;-70
2021/11/28 09:22:22;;;;;;;2.67;1.17;;;12.40;68.40;;;;;;4185155;28;20049;-72
2021/11/28 09:24:37;;;;;;;2.65;1.10;;;12.40;68.40;;;;;;4174213;28;20124;-71
2021/11/28 09:26:42;;;;;;;3.97;1.10;;;12.40;68.30;;;;;;4178307;28;20055;-71
2021/11/28 09:28:46;;;;;;;;;;;12.40;68.40;;;;;;4181079;28;20129;-75
2021/11/28 09:30:50;;;;;;;4.80;0.95;;;12.40;68.40;;;;;;4172868;28;19977;-70
2021/11/28 09:32:54;;;;;;;3.35;1.00;;;12.40;68.40;;;;;;4177108;28;20124;-71
2021/11/28 09:34:57;;;;;;;2.87;1.03;;;12.40;68.40;;;;;;4189396;28;20108;-73
2021/11/28 09:37:01;;;;;;;3.60;1.45;;;12.40;68.40;;;;;;4184697;28;20049;-71
2021/11/28 09:39:05;;;;;;;2.05;0.95;;;12.40;68.50;;;;;;4181528;28;20064;-72
2021/11/28 09:41:33;;;;;;;2.13;1.00;;;12.40;68.40;;;;;;4187323;28;20167;-72
2021/11/28 09:43:40;;;;;;;4.38;1.15;;;12.40;68.40;;;;;;4177821;28;20112;-71
2021/11/28 09:45:45;;;;;;;1.60;0.82;;;12.40;68.40;;;;;;4189257;28;20116;-72
2021/11/28 09:47:49;;;;;;;3.03;1.02;;;12.40;68.40;;;;;;4180443;28;20069;-75
2021/11/28 09:49:55;;;;;;;3.28;1.27;;;12.40;68.30;;;;;;4185109;28;20108;-73
2021/11/28 09:52:04;;;;;;;2.90;1.35;;;12.40;68.30;;;;;;4187671;28;20390;-73
2021/11/28 09:54:08;;;;;;;1.70;1.00;;;12.40;68.30;;;;;;4177811;28;20060;-71
2021/11/28 09:56:11;;;;;;;5.22;1.48;;;12.40;68.30;;;;;;4189172;28;20270;-75
2021/11/28 09:58:15;;;;;;;4.78;1.35;;;12.40;68.30;;;;;;4179978;28;20108;-72
2021/11/28 10:00:21;;;;;;;3.30;1.13;;;12.40;68.30;;;;;;4185877;28;20113;-71
2021/11/28 10:02:29;;;;;;;2.92;1.10;;;12.40;68.30;;;;;;4187461;28;20065;-74
2021/11/28 10:04:32;;;;;;;5.75;1.30;;;12.40;68.30;;;;;;4178080;28;20053;-73
2021/11/28 10:06:35;;;;;;;3.53;1.25;;;12.40;68.30;;;;;;4187647;28;20133;-71
2021/11/28 10:08:40;;;;;;;5.47;1.70;;;12.40;68.30;;;;;;4186730;28;20373;-72
2021/11/28 10:10:45;;;;;;;4.37;1.50;;;12.40;70.40;;;;;;4186777;28;20111;-72
2021/11/28 10:12:50;;;;;;;5.25;1.30;;;12.40;69.00;;;;;;4173021;28;21013;-72
2021/11/28 10:14:56;;;;;;;13.98;1.83;;;12.40;68.80;;;;;;4178571;28;20104;-72
2021/11/28 10:16:59;;;;;;;13.73;2.65;;;12.40;68.80;;;;;;4190618;28;20119;-71
2021/11/28 10:19:06;;;;;;;12.75;2.88;;;12.50;69.00;;;;;;4182395;28;20115;-73
2021/11/28 10:21:09;;;;;;;17.60;2.10;;;12.50;69.10;;;;;;4173780;28;20353;-70
2021/11/28 10:23:12;;;;;;;8.15;3.03;;;12.50;69.20;;;;;;4181342;28;20061;-71
2021/11/28 10:25:21;;;;;;;20.85;3.38;;;12.50;69.10;;;;;;4189332;28;20116;-71
2021/11/28 10:27:39;;;;;;;40.97;4.63;;;12.50;69.20;;;;;;4190243;28;20056;-70
2021/11/28 10:29:42;;;;;;;48.67;3.88;;;12.50;68.90;;;;;;4179347;28;20132;-69
2021/11/28 10:31:47;;;;;;;32.67;4.07;;;12.60;68.80;;;;;;4189731;28;20141;-70
2021/11/28 10:33:50;;;;;;;45.63;4.78;;;12.60;69.20;;;;;;4185391;28;20104;-70
2021/11/28 10:36:04;;;;;;;52.60;5.07;;;12.60;68.90;;;;;;4173477;28;20080;-71
2021/11/28 10:38:12;;;;;;;70.13;6.57;;;12.60;69.20;;;;;;4183082;28;20117;-73
2021/11/28 10:40:21;;;;;;;38.45;5.15;;;12.60;68.90;;;;;;4187185;28;20052;-73
2021/11/28 10:42:25;;;;;;;80.05;59.65;;;12.60;69.00;;;;;;4189508;28;20049;-69
2021/11/28 10:44:28;;;;;;;66.55;42.45;;;12.60;68.80;;;;;;4185319;28;20116;-70
2021/11/28 10:46:33;;;;;;;27.83;7.30;;;12.60;68.60;;;;;;4188417;28;20107;-69
2021/11/28 10:48:37;;;;;;;79.75;49.70;;;12.60;68.70;;;;;;4188412;28;20081;-68
2021/11/28 10:50:41;;;;;;;55.00;9.00;;;12.60;68.60;;;;;;4191319;28;20073;-68
2021/11/28 10:52:50;;;;;;;45.42;5.90;;;12.60;68.70;;;;;;4188664;28;20053;-70
2021/11/28 10:54:55;;;;;;;66.25;11.88;;;12.60;68.50;;;;;;4187583;28;20360;-70